Ailinglapalap, Marshall Islands

5:02 PM MHT on April 21, 2015 (GMT +1200)
Ailinglapalap Atoll | | Change Station
CLOSE
Current Station
Airport
Location: Ailinglapalap Atoll,
Elevation: 10 ft
Nearby Weather Stations

Elev 10 ft 7.27 °N, 168.83 °E | Updated 5 hours ago

Partly Cloudy
Partly Cloudy
88 °F
Feels Like 88 °F
N
5
Wind Variable Wind from East
Gusts mph

Today
High -- | Low -- °F
--% Chance of Precip.
Yesterday
High -- | Low -- °F
Precip. -- in
6:34 AM 6:53 PM
Waxing Crescent, 8% visible
Pressure in
Visibility 15.0 miles
Clouds Scattered Clouds 1476 ft
Dew Point 80 °F
Humidity 72%
Rainfall in
Snow Depth Not available.
UV Not available.
Pollen Not available.
Air Quality Not available.
Flu Activity Not available.
AAXX 21004 91367 32474 31004 10311 20267 83100 333 20242 562// 83815 555 92100 91369 32474 80905 10306 20283 30080 40083 84221 333 20261 56299 58000 83815 82260 82180 555 92100 91378 12474 40000 10322 20272 30109 40112 60005 82302 333 20261 569/9 58000 82115 82580 555 92100 91258 12474 80811 10272 20261 30118 40121 60342 88711 333 56299 58008 88715 555 92100 91371 32474 30905 10300 20286 30112 40115 82112 333 20256 56199 58000 81815 81160 82180 555 92100

More Conditions Fewer Conditions

Pressure in
Visibility 15.0 miles
Clouds Scattered Clouds 1476 ft
Dew Point 80 °F
Humidity 72%
Rainfall in
Snow Depth Not available.
UV Not available.
Pollen Not available.
Air Quality Not available.
Flu Activity Not available.
AAXX 21004 91367 32474 31004 10311 20267 83100 333 20242 562// 83815 555 92100 91369 32474 80905 10306 20283 30080 40083 84221 333 20261 56299 58000 83815 82260 82180 555 92100 91378 12474 40000 10322 20272 30109 40112 60005 82302 333 20261 569/9 58000 82115 82580 555 92100 91258 12474 80811 10272 20261 30118 40121 60342 88711 333 56299 58008 88715 555 92100 91371 32474 30905 10300 20286 30112 40115 82112 333 20256 56199 58000 81815 81160 82180 555 92100

More Conditions Fewer Conditions

10-Day Weather Forecast

Almanac

Astronomy

Apr. 21, 2015 Rise Set
Actual Time
Civil Twilight
Nautical Twilight
Astronomical Twilight
Moon
Length of Visible Light
Length of Day
Tomorrow will be .
, % of the Moon is Illuminated

Today's Extremes

Country Highs Country Lows

Community

WunderPhotos

Upload Photos

1,815,316 photos uploaded!

WunderBlogs® & News

Nearby

Air Quality

  Air Quality AQ Index Pollutant
Not available.

Snow Depth

Station Depth Elevation

Earthquake Activity

City Distance Mag. Time & Date
Minimum magnitude displayed is 2.5.

Coastal Water Temperatures

Place Temperature

Stations

Nearby Weather Stations

Station Location Temp. Windchill Dew Point Humidity Wind Precip. Elev Updated Type